KCHD/CHD METAR and TAF weather

Enter ICAO airport designator
Station Type Date Time Source
KCHD METAR 2018/04/26 14:47 UTC NOAA

KCHD 261447Z 00000KT 10SM BKN200 22/01 A2989


Station Type Date Time Source
KCHD Decoded METAR 2018/04/26 14:47 UTC NOAA

Chandler, Chandler Municipal Airport, AZ, United States (KCHD) 33-16-09N 111-48-40W
Apr 26, 2018 - 10:47 AM EDT / 2018.04.26 1447 UTC
Wind: Calm:0
Visibility: 10 mile(s):0
Sky conditions: mostly cloudy
Temperature: 71 F (22 C)
Dew Point: 33 F (1 C)
Relative Humidity: 24%
Pressure (altimeter): 29.89 in. Hg (1012 hPa)
ob: KCHD 261447Z 00000KT 10SM BKN200 22/01 A2989
cycle: 15

Station Type Date Time Source
KCHD TAF UTC NOAA

Error!


Example: see airport list